sensor_id;sensor_type;location;lat;lon;timestamp;pressure;altitude;pressure_sealevel;temperature;humidity
21877;BME280;11103;43.788;23.710;2023-02-23T00:01:16;148093.41;;;6.82;100.00
21877;BME280;11103;43.788;23.710;2023-02-23T00:03:42;148071.75;;;6.74;100.00
21877;BME280;11103;43.788;23.710;2023-02-23T00:06:09;148118.94;;;6.92;100.00
21877;BME280;11103;43.788;23.710;2023-02-23T00:08:35;148113.81;;;6.90;100.00
21877;BME280;11103;43.788;23.710;2023-02-23T00:11:06;148065.38;;;6.71;100.00
21877;BME280;11103;43.788;23.710;2023-02-23T00:13:33;148060.25;;;6.69;100.00
21877;BME280;11103;43.788;23.710;2023-02-23T00:16:11;148083.22;;;6.78;100.00
21877;BME280;11103;43.788;23.710;2023-02-23T00:18:41;148047.50;;;6.64;100.00
21877;BME280;11103;43.788;23.710;2023-02-23T00:21:11;148038.56;;;6.60;100.00
21877;BME280;11103;43.788;23.710;2023-02-23T00:23:43;148041.13;;;6.62;100.00
21877;BME280;11103;43.788;23.710;2023-02-23T00:26:11;148043.69;;;6.63;100.00
21877;BME280;11103;43.788;23.710;2023-02-23T00:28:38;147996.50;;;6.44;100.00
21877;BME280;11103;43.788;23.710;2023-02-23T00:31:05;147988.84;;;6.41;100.00
21877;BME280;11103;43.788;23.710;2023-02-23T00:33:30;148011.78;;;6.50;100.00
21877;BME280;11103;43.788;23.710;2023-02-23T00:36:05;147977.34;;;6.36;100.00
21877;BME280;11103;43.788;23.710;2023-02-23T00:38:33;147972.25;;;6.34;100.00
21877;BME280;11103;43.788;23.710;2023-02-23T00:41:08;147955.66;;;6.28;100.00
21877;BME280;11103;43.788;23.710;2023-02-23T00:43:35;147907.28;;;6.09;100.00
21877;BME280;11103;43.788;23.710;2023-02-23T00:46:02;147908.50;;;6.09;100.00
21877;BME280;11103;43.788;23.710;2023-02-23T00:48:34;147926.38;;;6.16;100.00
21877;BME280;11103;43.788;23.710;2023-02-23T00:51:04;147897.06;;;6.05;100.00
21877;BME280;11103;43.788;23.710;2023-02-23T00:53:30;147865.19;;;5.92;100.00
21877;BME280;11103;43.788;23.710;2023-02-23T00:55:56;147869.00;;;5.93;100.00
21877;BME280;11103;43.788;23.710;2023-02-23T00:58:23;147880.47;;;5.98;100.00
21877;BME280;11103;43.788;23.710;2023-02-23T01:00:49;147828.19;;;5.77;100.00
21877;BME280;11103;43.788;23.710;2023-02-23T01:03:15;147809.06;;;5.70;100.00
21877;BME280;11103;43.788;23.710;2023-02-23T01:05:40;147770.81;;;5.55;100.00
21877;BME280;11103;43.788;23.710;2023-02-23T01:08:06;147824.38;;;5.76;100.00
21877;BME280;11103;43.788;23.710;2023-02-23T01:10:41;147789.97;;;5.62;100.00
21877;BME280;11103;43.788;23.710;2023-02-23T01:13:17;147796.34;;;5.65;100.00
21877;BME280;11103;43.788;23.710;2023-02-23T01:15:43;147756.81;;;5.49;100.00
21877;BME280;11103;43.788;23.710;2023-02-23T01:18:09;147784.84;;;5.60;100.00
21877;BME280;11103;43.788;23.710;2023-02-23T01:20:36;147811.59;;;5.71;100.00
21877;BME280;11103;43.788;23.710;2023-02-23T01:23:02;147754.28;;;5.48;100.00
21877;BME280;11103;43.788;23.710;2023-02-23T01:25:28;147750.44;;;5.47;100.00
21877;BME280;11103;43.788;23.710;2023-02-23T01:27:54;147758.09;;;5.50;100.00
21877;BME280;11103;43.788;23.710;2023-02-23T01:30:20;147765.75;;;5.53;100.00
21877;BME280;11103;43.788;23.710;2023-02-23T01:32:46;147778.47;;;5.58;100.00
21877;BME280;11103;43.788;23.710;2023-02-23T01:35:11;147782.31;;;5.59;100.00
21877;BME280;11103;43.788;23.710;2023-02-23T01:37:39;147831.97;;;5.79;100.00
21877;BME280;11103;43.788;23.710;2023-02-23T01:40:07;147812.88;;;5.71;100.00
21877;BME280;11103;43.788;23.710;2023-02-23T01:42:39;147798.84;;;5.66;100.00
21877;BME280;11103;43.788;23.710;2023-02-23T01:48:01;147800.13;;;5.66;100.00
21877;BME280;11103;43.788;23.710;2023-02-23T01:50:35;147812.88;;;5.71;100.00
21877;BME280;11103;43.788;23.710;2023-02-23T01:53:01;147737.72;;;5.41;100.00
21877;BME280;11103;43.788;23.710;2023-02-23T01:55:27;147751.72;;;5.47;100.00
21877;BME280;11103;43.788;23.710;2023-02-23T01:58:00;147744.06;;;5.44;100.00
21877;BME280;11103;43.788;23.710;2023-02-23T02:00:28;147750.44;;;5.47;100.00
21877;BME280;11103;43.788;23.710;2023-02-23T02:02:55;147755.56;;;5.49;100.00
21877;BME280;11103;43.788;23.710;2023-02-23T02:05:23;147751.72;;;5.47;100.00
21877;BME280;11103;43.788;23.710;2023-02-23T02:07:50;147746.63;;;5.45;100.00
21877;BME280;11103;43.788;23.710;2023-02-23T02:10:24;147719.88;;;5.34;100.00
21877;BME280;11103;43.788;23.710;2023-02-23T02:13:04;147703.31;;;5.28;100.00
21877;BME280;11103;43.788;23.710;2023-02-23T02:15:34;147679.13;;;5.18;100.00
21877;BME280;11103;43.788;23.710;2023-02-23T02:29:30;147677.84;;;5.18;100.00
21877;BME280;11103;43.788;23.710;2023-02-23T02:35:10;147693.16;;;5.24;100.00
21877;BME280;11103;43.788;23.710;2023-02-23T02:41:04;147674.06;;;5.16;100.00
21877;BME280;11103;43.788;23.710;2023-02-23T02:43:51;147640.91;;;5.03;100.00
21877;BME280;11103;43.788;23.710;2023-02-23T02:46:31;147633.25;;;5.00;100.00
21877;BME280;11103;43.788;23.710;2023-02-23T02:51:34;147649.84;;;5.07;100.00
21877;BME280;11103;43.788;23.710;2023-02-23T02:54:41;147619.25;;;4.95;100.00
21877;BME280;11103;43.788;23.710;2023-02-23T02:57:06;147618.00;;;4.94;100.00
21877;BME280;11103;43.788;23.710;2023-02-23T02:59:45;147618.00;;;4.94;100.00
21877;BME280;11103;43.788;23.710;2023-02-23T03:02:32;147590.00;;;4.83;100.00
21877;BME280;11103;43.788;23.710;2023-02-23T03:05:19;147527.59;;;4.58;100.00
21877;BME280;11103;43.788;23.710;2023-02-23T03:11:08;147596.34;;;4.86;100.00
21877;BME280;11103;43.788;23.710;2023-02-23T03:14:16;147586.16;;;4.81;100.00
21877;BME280;11103;43.788;23.710;2023-02-23T03:17:21;147582.34;;;4.80;100.00
21877;BME280;11103;43.788;23.710;2023-02-23T03:26:29;147547.97;;;4.66;100.00
21877;BME280;11103;43.788;23.710;2023-02-23T03:32:51;147517.41;;;4.54;100.00
21877;BME280;11103;43.788;23.710;2023-02-23T03:36:11;147526.31;;;4.58;100.00
21877;BME280;11103;43.788;23.710;2023-02-23T03:39:06;147537.78;;;4.62;100.00
21877;BME280;11103;43.788;23.710;2023-02-23T03:41:54;147509.75;;;4.51;100.00
21877;BME280;11103;43.788;23.710;2023-02-23T03:44:42;147519.97;;;4.55;100.00
21877;BME280;11103;43.788;23.710;2023-02-23T03:47:32;147489.41;;;4.43;100.00
21877;BME280;11103;43.788;23.710;2023-02-23T03:50:33;147462.69;;;4.33;100.00
21877;BME280;11103;43.788;23.710;2023-02-23T03:53:26;147427.03;;;4.18;100.00
21877;BME280;11103;43.788;23.710;2023-02-23T03:56:12;147499.59;;;4.47;100.00
21877;BME280;11103;43.788;23.710;2023-02-23T03:59:00;147488.16;;;4.43;100.00
21877;BME280;11103;43.788;23.710;2023-02-23T04:01:45;147430.88;;;4.20;100.00
21877;BME280;11103;43.788;23.710;2023-02-23T04:04:32;147425.81;;;4.18;100.00
21877;BME280;11103;43.788;23.710;2023-02-23T04:07:17;147423.25;;;4.17;100.00
21877;BME280;11103;43.788;23.710;2023-02-23T04:10:03;147423.25;;;4.17;100.00
21877;BME280;11103;43.788;23.710;2023-02-23T04:13:10;147411.81;;;4.12;100.00
21877;BME280;11103;43.788;23.710;2023-02-23T04:15:53;147390.16;;;4.04;100.00
21877;BME280;11103;43.788;23.710;2023-02-23T04:18:22;147369.81;;;3.96;100.00
21877;BME280;11103;43.788;23.710;2023-02-23T04:20:49;147341.81;;;3.85;100.00
21877;BME280;11103;43.788;23.710;2023-02-23T04:23:14;147312.56;;;3.73;100.00
21877;BME280;11103;43.788;23.710;2023-02-23T04:25:40;147367.25;;;3.95;100.00
21877;BME280;11103;43.788;23.710;2023-02-23T04:28:05;147065.47;;;4.02;100.00
21877;BME280;11103;43.788;23.710;2023-02-23T04:30:31;146583.28;;;4.04;100.00
21877;BME280;11103;43.788;23.710;2023-02-23T04:32:56;146385.34;;;3.93;100.00
21877;BME280;11103;43.788;23.710;2023-02-23T04:35:24;144832.63;;;4.02;100.00
21877;BME280;11103;43.788;23.710;2023-02-23T04:37:52;143460.72;;;4.00;100.00
21877;BME280;11103;43.788;23.710;2023-02-23T04:40:17;142968.84;;;3.90;100.00
21877;BME280;11103;43.788;23.710;2023-02-23T04:42:43;140260.31;;;3.92;100.00
21877;BME280;11103;43.788;23.710;2023-02-23T04:45:09;138662.94;;;3.94;100.00
21877;BME280;11103;43.788;23.710;2023-02-23T04:47:34;136583.69;;;3.87;100.00
21877;BME280;11103;43.788;23.710;2023-02-23T04:50:00;135894.81;;;3.81;100.00
21877;BME280;11103;43.788;23.710;2023-02-23T04:52:25;135898.16;;;3.73;100.00
21877;BME280;11103;43.788;23.710;2023-02-23T04:54:51;134212.94;;;3.83;100.00
21877;BME280;11103;43.788;23.710;2023-02-23T04:57:16;134384.09;;;3.86;100.00
21877;BME280;11103;43.788;23.710;2023-02-23T04:59:42;135021.31;;;3.70;100.00
21877;BME280;11103;43.788;23.710;2023-02-23T05:02:08;135516.38;;;3.78;100.00
21877;BME280;11103;43.788;23.710;2023-02-23T05:04:33;135230.31;;;3.83;100.00
21877;BME280;11103;43.788;23.710;2023-02-23T05:07:02;135212.84;;;3.70;100.00
21877;BME280;11103;43.788;23.710;2023-02-23T05:09:28;136447.78;;;3.70;100.00
21877;BME280;11103;43.788;23.710;2023-02-23T05:11:54;135755.03;;;3.76;100.00
21877;BME280;11103;43.788;23.710;2023-02-23T05:14:20;133805.75;;;3.86;100.00
21877;BME280;11103;43.788;23.710;2023-02-23T05:16:45;134205.41;;;3.82;100.00
21877;BME280;11103;43.788;23.710;2023-02-23T05:19:10;134090.78;;;3.70;100.00
21877;BME280;11103;43.788;23.710;2023-02-23T05:21:36;134636.28;;;3.37;100.00
21877;BME280;11103;43.788;23.710;2023-02-23T05:24:03;132288.47;;;3.72;100.00
21877;BME280;11103;43.788;23.710;2023-02-23T05:26:28;132155.13;;;3.72;100.00
21877;BME280;11103;43.788;23.710;2023-02-23T05:28:54;133154.44;;;3.65;100.00
21877;BME280;11103;43.788;23.710;2023-02-23T05:31:21;132241.41;;;3.65;100.00
21877;BME280;11103;43.788;23.710;2023-02-23T05:33:46;132816.13;;;3.72;100.00
21877;BME280;11103;43.788;23.710;2023-02-23T05:36:14;131796.03;;;3.79;100.00
21877;BME280;11103;43.788;23.710;2023-02-23T05:38:43;131900.75;;;3.88;100.00
21877;BME280;11103;43.788;23.710;2023-02-23T05:41:12;132770.63;;;3.86;100.00
21877;BME280;11103;43.788;23.710;2023-02-23T05:43:38;133159.03;;;3.98;100.00
21877;BME280;11103;43.788;23.710;2023-02-23T05:46:07;132461.78;;;4.15;100.00
21877;BME280;11103;43.788;23.710;2023-02-23T05:48:33;132768.81;;;4.27;100.00
21877;BME280;11103;43.788;23.710;2023-02-23T05:51:08;131051.25;;;4.55;100.00
21877;BME280;11103;43.788;23.710;2023-02-23T05:53:34;130805.34;;;4.87;100.00
21877;BME280;11103;43.788;23.710;2023-02-23T05:56:01;131768.59;;;5.13;100.00
21877;BME280;11103;43.788;23.710;2023-02-23T05:58:27;133652.94;;;5.51;100.00
21877;BME280;11103;43.788;23.710;2023-02-23T06:00:53;138110.31;;;5.75;100.00
21877;BME280;11103;43.788;23.710;2023-02-23T06:03:19;143381.41;;;5.78;100.00
21877;BME280;11103;43.788;23.710;2023-02-23T06:05:51;143997.31;;;6.52;100.00
21877;BME280;11103;43.788;23.710;2023-02-23T06:08:18;148177.59;;;7.15;100.00
21877;BME280;11103;43.788;23.710;2023-02-23T06:10:43;148282.25;;;7.57;100.00
21877;BME280;11103;43.788;23.710;2023-02-23T06:13:09;148402.28;;;8.04;100.00
21877;BME280;11103;43.788;23.710;2023-02-23T06:15:35;148496.84;;;8.42;100.00
21877;BME280;11103;43.788;23.710;2023-02-23T06:18:01;148638.66;;;8.97;100.00
21877;BME280;11103;43.788;23.710;2023-02-23T06:20:27;148662.97;;;9.07;100.00
21877;BME280;11103;43.788;23.710;2023-02-23T06:22:52;148604.16;;;8.84;100.00
21877;BME280;11103;43.788;23.710;2023-02-23T06:25:18;148715.34;;;9.28;100.00
21877;BME280;11103;43.788;23.710;2023-02-23T06:27:44;148729.41;;;9.33;100.00
21877;BME280;11103;43.788;23.710;2023-02-23T06:30:10;148760.13;;;9.45;100.00
21877;BME280;11103;43.788;23.710;2023-02-23T06:32:36;148707.69;;;9.25;100.00
21877;BME280;11103;43.788;23.710;2023-02-23T06:35:05;148696.19;;;9.20;100.00
21877;BME280;11103;43.788;23.710;2023-02-23T06:37:32;148680.84;;;9.14;100.00
21877;BME280;11103;43.788;23.710;2023-02-23T06:39:58;148457.22;;;8.26;100.00
21877;BME280;11103;43.788;23.710;2023-02-23T06:42:23;148486.59;;;8.37;100.00
21877;BME280;11103;43.788;23.710;2023-02-23T06:44:49;148426.53;;;8.14;100.00
21877;BME280;11103;43.788;23.710;2023-02-23T06:47:14;148344.81;;;7.82;100.00
21877;BME280;11103;43.788;23.710;2023-02-23T06:49:40;148314.16;;;7.69;100.00
21877;BME280;11103;43.788;23.710;2023-02-23T06:52:08;148291.22;;;7.60;100.00
21877;BME280;11103;43.788;23.710;2023-02-23T06:54:34;148256.75;;;7.47;100.00
21877;BME280;11103;43.788;23.710;2023-02-23T06:57:02;148244.00;;;7.42;100.00
21877;BME280;11103;43.788;23.710;2023-02-23T06:59:27;148182.69;;;7.17;100.00
21877;BME280;11103;43.788;23.710;2023-02-23T07:01:54;148149.53;;;7.04;100.00
21877;BME280;11103;43.788;23.710;2023-02-23T07:04:20;148177.59;;;7.15;100.00
21877;BME280;11103;43.788;23.710;2023-02-23T07:06:45;148178.88;;;7.16;100.00
21877;BME280;11103;43.788;23.710;2023-02-23T07:09:11;148153.38;;;7.06;100.00
21877;BME280;11103;43.788;23.710;2023-02-23T07:11:36;148175.09;;;7.14;100.00
21877;BME280;11103;43.788;23.710;2023-02-23T07:14:02;148163.56;;;7.10;100.00
21877;BME280;11103;43.788;23.710;2023-02-23T07:16:28;148095.97;;;6.83;100.00
21877;BME280;11103;43.788;23.710;2023-02-23T07:18:55;148118.94;;;6.92;100.00
21877;BME280;11103;43.788;23.710;2023-02-23T07:21:20;148154.66;;;7.06;100.00
21877;BME280;11103;43.788;23.710;2023-02-23T07:23:46;148171.22;;;7.13;100.00
21877;BME280;11103;43.788;23.710;2023-02-23T07:26:17;148107.44;;;6.88;100.00
21877;BME280;11103;43.788;23.710;2023-02-23T07:28:43;148169.94;;;7.12;100.00
21877;BME280;11103;43.788;23.710;2023-02-23T07:31:09;148180.16;;;7.16;100.00
21877;BME280;11103;43.788;23.710;2023-02-23T07:33:34;148175.09;;;7.14;100.00
21877;BME280;11103;43.788;23.710;2023-02-23T07:36:00;148164.84;;;7.10;100.00
21877;BME280;11103;43.788;23.710;2023-02-23T07:38:26;148213.34;;;7.30;100.00
21877;BME280;11103;43.788;23.710;2023-02-23T07:40:51;148233.75;;;7.38;100.00
21877;BME280;11103;43.788;23.710;2023-02-23T07:43:17;148284.84;;;7.58;100.00
21877;BME280;11103;43.788;23.710;2023-02-23T07:45:45;148335.88;;;7.78;100.00
21877;BME280;11103;43.788;23.710;2023-02-23T07:48:10;148353.78;;;7.85;100.00
21877;BME280;11103;43.788;23.710;2023-02-23T07:50:38;148395.88;;;8.02;100.00
21877;BME280;11103;43.788;23.710;2023-02-23T07:53:04;148381.88;;;7.96;100.00
21877;BME280;11103;43.788;23.710;2023-02-23T07:55:30;148348.63;;;7.83;100.00
21877;BME280;11103;43.788;23.710;2023-02-23T07:57:55;148390.78;;;8.00;100.00
21877;BME280;11103;43.788;23.710;2023-02-23T08:00:21;148371.63;;;7.92;100.00
21877;BME280;11103;43.788;23.710;2023-02-23T08:02:49;148409.91;;;8.07;100.00
21877;BME280;11103;43.788;23.710;2023-02-23T08:05:15;148429.09;;;8.15;100.00
21877;BME280;11103;43.788;23.710;2023-02-23T08:07:40;148464.88;;;8.29;100.00
21877;BME280;11103;43.788;23.710;2023-02-23T08:10:06;148485.31;;;8.37;100.00
21877;BME280;11103;43.788;23.710;2023-02-23T08:12:32;148478.94;;;8.34;100.00
21877;BME280;11103;43.788;23.710;2023-02-23T08:14:58;148470.03;;;8.31;100.00
21877;BME280;11103;43.788;23.710;2023-02-23T08:17:24;148524.94;;;8.53;100.00
21877;BME280;11103;43.788;23.710;2023-02-23T08:19:49;148528.75;;;8.54;100.00
21877;BME280;11103;43.788;23.710;2023-02-23T08:22:15;148587.56;;;8.77;100.00
21877;BME280;11103;43.788;23.710;2023-02-23T08:24:40;148616.91;;;8.89;100.00
21877;BME280;11103;43.788;23.710;2023-02-23T08:27:05;148614.41;;;8.88;100.00
21877;BME280;11103;43.788;23.710;2023-02-23T08:29:31;148539.00;;;8.58;100.00
21877;BME280;11103;43.788;23.710;2023-02-23T08:31:57;148547.91;;;8.62;100.00
21877;BME280;11103;43.788;23.710;2023-02-23T08:34:23;148628.44;;;8.93;100.00
21877;BME280;11103;43.788;23.710;2023-02-23T08:36:49;148662.97;;;9.07;100.00
21877;BME280;11103;43.788;23.710;2023-02-23T08:39:14;148638.66;;;8.97;100.00
21877;BME280;11103;43.788;23.710;2023-02-23T08:41:40;148651.44;;;9.03;100.00
21877;BME280;11103;43.788;23.710;2023-02-23T08:44:06;148749.88;;;9.41;100.00
21877;BME280;11103;43.788;23.710;2023-02-23T08:46:32;148765.22;;;9.47;100.00
21877;BME280;11103;43.788;23.710;2023-02-23T08:48:57;148776.72;;;9.52;100.00
21877;BME280;11103;43.788;23.710;2023-02-23T08:51:23;148795.88;;;9.59;100.00
21877;BME280;11103;43.788;23.710;2023-02-23T08:53:49;148816.34;;;9.68;100.00
21877;BME280;11103;43.788;23.710;2023-02-23T08:56:14;148847.06;;;9.80;100.00
21877;BME280;11103;43.788;23.710;2023-02-23T08:58:40;148931.53;;;10.13;100.00
21877;BME280;11103;43.788;23.710;2023-02-23T09:01:06;148959.69;;;10.24;100.00
21877;BME280;11103;43.788;23.710;2023-02-23T09:03:33;148982.69;;;10.33;100.00
21877;BME280;11103;43.788;23.710;2023-02-23T09:06:10;148992.97;;;10.37;100.00
21877;BME280;11103;43.788;23.710;2023-02-23T09:08:36;148922.53;;;10.09;100.00
21877;BME280;11103;43.788;23.710;2023-02-23T09:11:03;148952.00;;;10.21;100.00
21877;BME280;11103;43.788;23.710;2023-02-23T09:13:29;148992.97;;;10.37;100.00
21877;BME280;11103;43.788;23.710;2023-02-23T09:15:54;149003.16;;;10.41;100.00
21877;BME280;11103;43.788;23.710;2023-02-23T09:18:20;148977.59;;;10.31;100.00
21877;BME280;11103;43.788;23.710;2023-02-23T09:20:48;149008.31;;;10.43;100.00
21877;BME280;11103;43.788;23.710;2023-02-23T09:23:14;149064.59;;;10.65;100.00
21877;BME280;11103;43.788;23.710;2023-02-23T09:25:41;149060.78;;;10.64;100.00
21877;BME280;11103;43.788;23.710;2023-02-23T09:28:10;149060.78;;;10.64;100.00
21877;BME280;11103;43.788;23.710;2023-02-23T09:30:36;149058.19;;;10.63;100.00
21877;BME280;11103;43.788;23.710;2023-02-23T09:33:01;149013.44;;;10.45;100.00
21877;BME280;11103;43.788;23.710;2023-02-23T09:35:27;149094.06;;;10.77;100.00
21877;BME280;11103;43.788;23.710;2023-02-23T09:37:54;149215.72;;;11.25;100.00
21877;BME280;11103;43.788;23.710;2023-02-23T09:40:26;149274.59;;;11.48;100.00
21877;BME280;11103;43.788;23.710;2023-02-23T09:48:36;149275.91;;;11.49;100.00
21877;BME280;11103;43.788;23.710;2023-02-23T09:51:05;149275.91;;;11.49;100.00
21877;BME280;11103;43.788;23.710;2023-02-23T09:53:39;149158.06;;;11.02;100.00
21877;BME280;11103;43.788;23.710;2023-02-23T09:58:35;149141.41;;;10.96;100.00
21877;BME280;11103;43.788;23.710;2023-02-23T10:04:11;149223.34;;;11.28;100.00
21877;BME280;11103;43.788;23.710;2023-02-23T10:06:42;149205.44;;;11.21;100.00
21877;BME280;11103;43.788;23.710;2023-02-23T10:09:36;149279.72;;;11.50;100.00
21877;BME280;11103;43.788;23.710;2023-02-23T10:12:10;149259.22;;;11.42;100.00
21877;BME280;11103;43.788;23.710;2023-02-23T10:22:45;149363.03;;;11.83;100.00
21877;BME280;11103;43.788;23.710;2023-02-23T10:25:17;149402.75;;;11.99;100.00
21877;BME280;11103;43.788;23.710;2023-02-23T10:27:48;149466.84;;;12.24;100.00
21877;BME280;11103;43.788;23.710;2023-02-23T10:30:21;149509.16;;;12.40;100.00
21877;BME280;11103;43.788;23.710;2023-02-23T10:33:09;149427.13;;;12.08;100.00
21877;BME280;11103;43.788;23.710;2023-02-23T10:35:38;149413.03;;;12.03;100.00
21877;BME280;11103;43.788;23.710;2023-02-23T10:38:03;149428.41;;;12.09;100.00
21877;BME280;11103;43.788;23.710;2023-02-23T10:40:31;149492.47;;;12.34;100.00
21877;BME280;11103;43.788;23.710;2023-02-23T10:42:59;149533.53;;;12.50;100.00
21877;BME280;11103;43.788;23.710;2023-02-23T10:45:27;149562.97;;;12.62;100.00
21877;BME280;11103;43.788;23.710;2023-02-23T10:48:06;149613.00;;;12.81;100.00
21877;BME280;11103;43.788;23.710;2023-02-23T10:50:35;149543.75;;;12.54;100.00
21877;BME280;11103;43.788;23.710;2023-02-23T10:53:22;149600.19;;;12.76;100.00
21877;BME280;11103;43.788;23.710;2023-02-23T10:56:09;149618.13;;;12.83;100.00
21877;BME280;11103;43.788;23.710;2023-02-23T10:58:40;149618.13;;;12.83;100.00
21877;BME280;11103;43.788;23.710;2023-02-23T11:01:08;149643.81;;;12.93;100.00
21877;BME280;11103;43.788;23.710;2023-02-23T11:06:02;149647.63;;;12.95;100.00
21877;BME280;11103;43.788;23.710;2023-02-23T11:08:36;149598.91;;;12.76;100.00
21877;BME280;11103;43.788;23.710;2023-02-23T11:18:43;149784.94;;;13.49;100.00
21877;BME280;11103;43.788;23.710;2023-02-23T11:21:20;149746.47;;;13.34;100.00
21877;BME280;11103;43.788;23.710;2023-02-23T11:23:49;149801.63;;;13.55;100.00
21877;BME280;11103;43.788;23.710;2023-02-23T11:26:20;149772.09;;;13.44;100.00
21877;BME280;11103;43.788;23.710;2023-02-23T11:28:53;149795.22;;;13.53;100.00
21877;BME280;11103;43.788;23.710;2023-02-23T11:31:25;149769.53;;;13.43;100.00
21877;BME280;11103;43.788;23.710;2023-02-23T11:33:54;149754.16;;;13.37;100.00
21877;BME280;11103;43.788;23.710;2023-02-23T11:36:57;149786.22;;;13.49;100.00
21877;BME280;11103;43.788;23.710;2023-02-23T11:39:21;149859.34;;;13.78;100.00
21877;BME280;11103;43.788;23.710;2023-02-23T11:44:36;149883.75;;;13.88;100.00
21877;BME280;11103;43.788;23.710;2023-02-23T11:47:02;149963.31;;;14.19;100.00
21877;BME280;11103;43.788;23.710;2023-02-23T11:49:31;149836.28;;;13.69;100.00
21877;BME280;11103;43.788;23.710;2023-02-23T11:52:00;149924.84;;;14.04;100.00
21877;BME280;11103;43.788;23.710;2023-02-23T11:54:28;149992.88;;;14.30;100.00
21877;BME280;11103;43.788;23.710;2023-02-23T11:56:55;150007.03;;;14.36;100.00
21877;BME280;11103;43.788;23.710;2023-02-23T11:59:36;149953.06;;;14.15;100.00
21877;BME280;11103;43.788;23.710;2023-02-23T12:04:43;150023.75;;;14.43;100.00
21877;BME280;11103;43.788;23.710;2023-02-23T12:07:30;150116.19;;;14.79;100.00
21877;BME280;11103;43.788;23.710;2023-02-23T12:21:18;150077.69;;;14.64;100.00
21877;BME280;11103;43.788;23.710;2023-02-23T12:23:49;150081.50;;;14.65;100.00
21877;BME280;11103;43.788;23.710;2023-02-23T12:26:21;150104.66;;;14.74;100.00
21877;BME280;11103;43.788;23.710;2023-02-23T12:28:55;150113.66;;;14.78;100.00
21877;BME280;11103;43.788;23.710;2023-02-23T12:31:35;150166.31;;;14.99;100.00
21877;BME280;11103;43.788;23.710;2023-02-23T12:34:16;150114.91;;;14.78;100.00
21877;BME280;11103;43.788;23.710;2023-02-23T12:36:50;150041.72;;;14.50;100.00
21877;BME280;11103;43.788;23.710;2023-02-23T12:39:30;150021.16;;;14.42;100.00
21877;BME280;11103;43.788;23.710;2023-02-23T12:42:52;149972.31;;;14.22;100.00
21877;BME280;11103;43.788;23.710;2023-02-23T12:50:49;149954.38;;;14.15;100.00
21877;BME280;11103;43.788;23.710;2023-02-23T12:53:28;149954.38;;;14.15;100.00
21877;BME280;11103;43.788;23.710;2023-02-23T12:56:03;150039.13;;;14.49;100.00
21877;BME280;11103;43.788;23.710;2023-02-23T13:01:09;149928.66;;;14.05;100.00
21877;BME280;11103;43.788;23.710;2023-02-23T13:15:21;149989.03;;;14.29;100.00
21877;BME280;11103;43.788;23.710;2023-02-23T13:25:28;149802.94;;;13.56;100.00
21877;BME280;11103;43.788;23.710;2023-02-23T13:28:01;149782.41;;;13.48;100.00
21877;BME280;11103;43.788;23.710;2023-02-23T13:30:30;149723.34;;;13.25;100.00
21877;BME280;11103;43.788;23.710;2023-02-23T13:32:57;149701.53;;;13.16;100.00
21877;BME280;11103;43.788;23.710;2023-02-23T13:35:24;149700.25;;;13.16;100.00
21877;BME280;11103;43.788;23.710;2023-02-23T13:37:58;149682.31;;;13.08;100.00
21877;BME280;11103;43.788;23.710;2023-02-23T13:40:41;149665.56;;;13.02;100.00
21877;BME280;11103;43.788;23.710;2023-02-23T13:43:20;149639.94;;;12.92;100.00
21877;BME280;11103;43.788;23.710;2023-02-23T13:51:42;149632.22;;;12.89;100.00
21877;BME280;11103;43.788;23.710;2023-02-23T13:56:43;149646.34;;;12.94;100.00
21877;BME280;11103;43.788;23.710;2023-02-23T13:59:19;149659.16;;;12.99;100.00
21877;BME280;11103;43.788;23.710;2023-02-23T14:01:48;149665.56;;;13.02;100.00
21877;BME280;11103;43.788;23.710;2023-02-23T14:04:35;149645.03;;;12.94;100.00
21877;BME280;11103;43.788;23.710;2023-02-23T14:09:56;149484.81;;;12.31;100.00
21877;BME280;11103;43.788;23.710;2023-02-23T14:12:33;149520.66;;;12.45;100.00
21877;BME280;11103;43.788;23.710;2023-02-23T14:18:04;149515.56;;;12.43;100.00
21877;BME280;11103;43.788;23.710;2023-02-23T14:21:00;149468.13;;;12.24;100.00
21877;BME280;11103;43.788;23.710;2023-02-23T14:29:27;149443.81;;;12.15;100.00
21877;BME280;11103;43.788;23.710;2023-02-23T14:34:49;149418.13;;;12.05;100.00
21877;BME280;11103;43.788;23.710;2023-02-23T14:37:23;149372.03;;;11.86;100.00
21877;BME280;11103;43.788;23.710;2023-02-23T14:39:51;149392.53;;;11.94;100.00
21877;BME280;11103;43.788;23.710;2023-02-23T14:42:23;149341.25;;;11.74;100.00
21877;BME280;11103;43.788;23.710;2023-02-23T14:44:52;149361.75;;;11.82;100.00
21877;BME280;11103;43.788;23.710;2023-02-23T14:47:20;149343.84;;;11.75;100.00
21877;BME280;11103;43.788;23.710;2023-02-23T14:49:50;149302.78;;;11.59;100.00
21877;BME280;11103;43.788;23.710;2023-02-23T14:52:23;149315.59;;;11.64;100.00
21877;BME280;11103;43.788;23.710;2023-02-23T14:54:50;149309.19;;;11.62;100.00
21877;BME280;11103;43.788;23.710;2023-02-23T14:57:22;149281.00;;;11.51;100.00
21877;BME280;11103;43.788;23.710;2023-02-23T15:00:02;149274.59;;;11.48;100.00
21877;BME280;11103;43.788;23.710;2023-02-23T15:02:31;149146.56;;;10.98;100.00
21877;BME280;11103;43.788;23.710;2023-02-23T15:04:56;149242.59;;;11.35;100.00
21877;BME280;11103;43.788;23.710;2023-02-23T15:07:36;149256.69;;;11.41;100.00